Time,TemperatureF,DewpointF,PressureIn,WindDirection,WindDirectionDegrees,WindSpeedMPH,WindSpeedGustMPH,Humidity,HourlyPrecipIn,Conditions,Clouds,dailyrainin,SoftwareType,DateUTC
2013-04-01 00:12:00,62.4,61.3,29.91,SW,225,1.1,-999.0,96,-99.99,,,0.00,Acu-Link.com,2013-04-01 05:12:00,
2013-04-01 00:28:00,61.5,60.9,29.91,SSE,157,0.0,-999.0,98,-99.99,,,0.00,Acu-Link.com,2013-04-01 05:28:00,
2013-04-01 00:43:00,60.4,59.9,29.91,South,180,0.0,-999.0,98,-99.99,,,0.00,Acu-Link.com,2013-04-01 05:43:00,
2013-04-01 00:58:00,59.5,59.0,29.92,ENE,67,0.0,-999.0,98,-99.99,,,0.00,Acu-Link.com,2013-04-01 05:58:00,
2013-04-01 01:13:00,58.8,58.3,29.92,West,270,0.0,-999.0,98,-99.99,,,0.00,Acu-Link.com,2013-04-01 06:13:00,
2013-04-01 01:28:00,57.7,57.2,29.92,WSW,247,0.0,-999.0,98,-99.99,,,0.00,Acu-Link.com,2013-04-01 06:28:00,
2013-04-01 01:44:00,56.8,56.3,29.92,West,270,0.0,-999.0,98,-99.99,,,0.00,Acu-Link.com,2013-04-01 06:44:00,
2013-04-01 01:59:00,55.9,55.4,29.93,West,270,0.0,-999.0,98,-99.99,,,0.00,Acu-Link.com,2013-04-01 06:59:00,
2013-04-01 02:14:00,55.0,54.5,29.93,NNW,337,0.0,-999.0,98,-99.99,,,0.00,Acu-Link.com,2013-04-01 07:14:00,
2013-04-01 02:29:00,54.5,53.9,29.93,SE,135,0.0,-999.0,98,-99.99,,,0.00,Acu-Link.com,2013-04-01 07:29:00,
2013-04-01 02:44:00,54.0,53.4,29.93,SE,135,0.0,-999.0,98,-99.99,,,0.00,Acu-Link.com,2013-04-01 07:44:00,
2013-04-01 03:00:00,53.1,52.5,29.93,SE,135,0.0,-999.0,98,-99.99,,,0.00,Acu-Link.com,2013-04-01 08:00:00,
2013-04-01 03:15:00,52.9,52.3,29.93,SE,135,0.0,-999.0,98,-99.99,,,0.00,Acu-Link.com,2013-04-01 08:15:00,
2013-04-01 03:30:00,52.7,52.2,29.93,SE,135,0.0,-999.0,98,-99.99,,,0.00,Acu-Link.com,2013-04-01 08:30:00,
2013-04-01 03:45:00,52.2,51.6,29.93,SE,135,0.0,-999.0,98,-99.99,,,0.00,Acu-Link.com,2013-04-01 08:45:00,
2013-04-01 04:01:00,52.0,51.4,29.93,SE,135,0.0,-999.0,98,-99.99,,,0.00,Acu-Link.com,2013-04-01 09:01:00,
2013-04-01 04:16:00,51.3,50.7,29.94,SE,135,0.0,-999.0,98,-99.99,,,0.00,Acu-Link.com,2013-04-01 09:16:00,
2013-04-01 04:31:00,50.9,50.4,29.94,SE,135,0.0,-999.0,98,-99.99,,,0.00,Acu-Link.com,2013-04-01 09:31:00,
2013-04-01 05:17:00,52.7,52.2,29.93,NE,45,2.2,-999.0,98,-99.99,,,0.00,Acu-Link.com,2013-04-01 10:17:00,
2013-04-01 05:47:00,51.6,51.1,29.94,North,0,0.0,-999.0,98,-99.99,,,0.00,Acu-Link.com,2013-04-01 10:47:00,
2013-04-01 06:02:00,50.7,50.2,29.95,NNW,337,0.0,-999.0,98,-99.99,,,0.00,Acu-Link.com,2013-04-01 11:02:00,
2013-04-01 06:17:00,51.1,50.5,29.95,NNW,337,0.0,-999.0,98,-99.99,,,0.00,Acu-Link.com,2013-04-01 11:17:00,
2013-04-01 06:33:00,50.5,50.0,29.96,NE,45,0.0,-999.0,98,-99.99,,,0.00,Acu-Link.com,2013-04-01 11:33:00,
2013-04-01 06:48:00,50.0,49.5,29.96,ENE,67,0.0,-999.0,98,-99.99,,,0.00,Acu-Link.com,2013-04-01 11:48:00,
2013-04-01 07:03:00,50.0,49.5,29.97,NNE,22,0.0,-999.0,98,-99.99,,,0.00,Acu-Link.com,2013-04-01 12:03:00,
2013-04-01 07:18:00,49.8,49.3,29.96,SSE,157,0.0,-999.0,98,-99.99,,,0.00,Acu-Link.com,2013-04-01 12:18:00,
2013-04-01 07:33:00,49.6,49.1,29.96,North,0,0.0,-999.0,98,-99.99,,,0.00,Acu-Link.com,2013-04-01 12:33:00,
2013-04-01 07:49:00,50.4,49.8,29.96,NW,315,0.0,-999.0,98,-99.99,,,0.00,Acu-Link.com,2013-04-01 12:49:00,
2013-04-01 08:04:00,51.1,50.5,29.97,South,180,0.0,-999.0,98,-99.99,,,0.00,Acu-Link.com,2013-04-01 13:04:00,
2013-04-01 08:19:00,52.9,52.3,29.97,South,180,0.0,-999.0,98,-99.99,,,0.00,Acu-Link.com,2013-04-01 13:19:00,
2013-04-01 08:34:00,55.2,54.7,29.98,SE,135,0.0,-999.0,98,-99.99,,,0.00,Acu-Link.com,2013-04-01 13:34:00,
2013-04-01 08:49:00,58.1,57.5,29.98,ENE,67,1.1,-999.0,98,-99.99,,,0.00,Acu-Link.com,2013-04-01 13:49:00,
2013-04-01 09:05:00,60.4,59.9,29.98,SE,135,0.0,-999.0,98,-99.99,,,0.00,Acu-Link.com,2013-04-01 14:05:00,
2013-04-01 09:20:00,62.1,61.5,29.98,South,180,0.0,-999.0,98,-99.99,,,0.00,Acu-Link.com,2013-04-01 14:20:00,
2013-04-01 09:35:00,64.9,64.4,29.99,South,180,1.1,-999.0,98,-99.99,,,0.00,Acu-Link.com,2013-04-01 14:35:00,
2013-04-01 09:50:00,67.6,67.1,29.99,East,90,1.1,-999.0,98,-99.99,,,0.00,Acu-Link.com,2013-04-01 14:50:00,
2013-04-01 10:06:00,69.3,67.1,29.98,SE,135,2.7,-999.0,93,-99.99,,,0.00,Acu-Link.com,2013-04-01 15:06:00,
2013-04-01 10:51:00,73.0,65.0,29.99,SE,135,2.7,-999.0,76,-99.99,,,0.00,Acu-Link.com,2013-04-01 15:51:00,
2013-04-01 11:22:00,75.6,66.3,29.99,SSW,202,3.1,-999.0,73,-99.99,,,0.00,Acu-Link.com,2013-04-01 16:22:00,
2013-04-01 11:37:00,74.8,65.6,29.99,South,180,6.7,-999.0,73,-99.99,,,0.00,Acu-Link.com,2013-04-01 16:37:00,
2013-04-01 11:52:00,76.8,66.7,29.98,SSE,157,3.8,-999.0,71,-99.99,,,0.00,Acu-Link.com,2013-04-01 16:52:00,
2013-04-01 12:07:00,78.4,66.6,29.98,ESE,112,3.1,-999.0,67,-99.99,,,0.00,Acu-Link.com,2013-04-01 17:07:00,
2013-04-01 12:22:00,80.2,66.5,29.98,South,180,4.7,-999.0,63,-99.99,,,0.00,Acu-Link.com,2013-04-01 17:22:00,
2013-04-01 12:38:00,80.2,65.5,29.97,South,180,3.1,-999.0,61,-99.99,,,0.00,Acu-Link.com,2013-04-01 17:38:00,
2013-04-01 12:53:00,80.2,65.5,29.96,SE,135,3.8,-999.0,61,-99.99,,,0.00,Acu-Link.com,2013-04-01 17:53:00,
2013-04-01 13:08:00,82.6,65.3,29.96,SSE,157,4.3,-999.0,56,-99.99,,,0.00,Acu-Link.com,2013-04-01 18:08:00,
2013-04-01 13:23:00,82.0,65.8,29.95,NNE,22,4.7,-999.0,58,-99.99,,,0.00,Acu-Link.com,2013-04-01 18:23:00,
2013-04-01 13:38:00,84.7,66.8,29.94,ESE,112,1.6,-999.0,55,-99.99,,,0.00,Acu-Link.com,2013-04-01 18:38:00,
2013-04-01 13:54:00,84.9,65.8,29.93,East,90,3.8,-999.0,53,-99.99,,,0.00,Acu-Link.com,2013-04-01 18:54:00,
2013-04-01 14:09:00,83.7,64.1,29.93,NE,45,5.8,-999.0,52,-99.99,,,0.00,Acu-Link.com,2013-04-01 19:09:00,
2013-04-01 14:24:00,85.6,65.4,29.92,South,180,2.7,-999.0,51,-99.99,,,0.00,Acu-Link.com,2013-04-01 19:24:00,
2013-04-01 14:39:00,82.9,63.5,29.91,SSW,202,2.7,-999.0,52,-99.99,,,0.00,Acu-Link.com,2013-04-01 19:39:00,
2013-04-01 14:55:00,82.6,62.6,29.90,South,180,2.7,-999.0,51,-99.99,,,0.00,Acu-Link.com,2013-04-01 19:55:00,
2013-04-01 15:10:00,84.9,64.7,29.89,SSW,202,4.7,-999.0,51,-99.99,,,0.00,Acu-Link.com,2013-04-01 20:10:00,
2013-04-01 15:25:00,85.6,64.3,29.88,East,90,2.2,-999.0,49,-99.99,,,0.00,Acu-Link.com,2013-04-01 20:25:00,
2013-04-01 15:40:00,87.8,64.4,29.87,South,180,4.3,-999.0,46,-99.99,,,0.00,Acu-Link.com,2013-04-01 20:40:00,
2013-04-01 15:55:00,86.5,63.3,29.87,ESE,112,5.1,-999.0,46,-99.99,,,0.00,Acu-Link.com,2013-04-01 20:55:00,
2013-04-01 16:11:00,85.6,63.7,29.86,SW,225,1.6,-999.0,48,-99.99,,,0.00,Acu-Link.com,2013-04-01 21:11:00,
2013-04-01 16:41:00,84.2,59.9,29.85,South,180,4.7,-999.0,44,-99.99,,,0.00,Acu-Link.com,2013-04-01 21:41:00,
2013-04-01 16:56:00,85.8,61.4,29.84,NE,45,5.1,-999.0,44,-99.99,,,0.00,Acu-Link.com,2013-04-01 21:56:00,
2013-04-01 17:11:00,85.6,60.5,29.84,SW,225,4.7,-999.0,43,-99.99,,,0.00,Acu-Link.com,2013-04-01 22:11:00,
2013-04-01 17:27:00,86.0,61.5,29.82,South,180,3.8,-999.0,44,-99.99,,,0.00,Acu-Link.com,2013-04-01 22:27:00,
2013-04-01 17:42:00,84.9,61.2,29.82,SE,135,2.7,-999.0,45,-99.99,,,0.00,Acu-Link.com,2013-04-01 22:42:00,
2013-04-01 17:57:00,83.3,61.5,29.81,ENE,67,2.7,-999.0,48,-99.99,,,0.00,Acu-Link.com,2013-04-01 22:57:00,
2013-04-01 18:12:00,84.2,62.4,29.81,SSE,157,6.3,-999.0,48,-99.99,,,0.00,Acu-Link.com,2013-04-01 23:12:00,
2013-04-01 18:28:00,82.8,62.2,29.81,SW,225,4.7,-999.0,50,-99.99,,,0.00,Acu-Link.com,2013-04-01 23:28:00,
2013-04-01 18:43:00,82.0,61.5,29.80,ESE,112,3.1,-999.0,50,-99.99,,,0.00,Acu-Link.com,2013-04-01 23:43:00,
2013-04-01 18:58:00,81.5,61.6,29.80,South,180,1.6,-999.0,51,-99.99,,,0.00,Acu-Link.com,2013-04-01 23:58:00,
2013-04-01 19:13:00,80.8,62.0,29.80,ESE,112,2.7,-999.0,53,-99.99,,,0.00,Acu-Link.com,2013-04-02 00:13:00,
2013-04-01 19:28:00,79.5,61.4,29.80,SSE,157,2.2,-999.0,54,-99.99,,,0.00,Acu-Link.com,2013-04-02 00:28:00,
2013-04-01 19:44:00,78.3,61.3,29.81,ESE,112,1.6,-999.0,56,-99.99,,,0.00,Acu-Link.com,2013-04-02 00:44:00,
2013-04-01 19:59:00,76.5,60.1,29.81,SSE,157,2.7,-999.0,57,-99.99,,,0.00,Acu-Link.com,2013-04-02 00:59:00,
2013-04-01 20:14:00,75.2,60.3,29.82,SSE,157,0.0,-999.0,60,-99.99,,,0.00,Acu-Link.com,2013-04-02 01:14:00,
2013-04-01 20:29:00,74.5,61.5,29.82,NE,45,4.3,-999.0,64,-99.99,,,0.00,Acu-Link.com,2013-04-02 01:29:00,
2013-04-01 20:44:00,74.1,63.7,29.82,ESE,112,2.7,-999.0,70,-99.99,,,0.00,Acu-Link.com,2013-04-02 01:44:00,
2013-04-01 21:00:00,73.4,64.6,29.82,ESE,112,3.1,-999.0,74,-99.99,,,0.00,Acu-Link.com,2013-04-02 02:00:00,
2013-04-01 21:15:00,72.9,65.2,29.84,ESE,112,4.7,-999.0,77,-99.99,,,0.00,Acu-Link.com,2013-04-02 02:15:00,
2013-04-01 21:30:00,72.3,66.2,29.84,SE,135,1.6,-999.0,81,-99.99,,,0.00,Acu-Link.com,2013-04-02 02:30:00,
2013-04-01 21:45:00,71.8,67.0,29.84,ESE,112,1.1,-999.0,85,-99.99,,,0.00,Acu-Link.com,2013-04-02 02:45:00,
2013-04-01 22:00:00,71.2,67.2,29.84,South,180,3.8,-999.0,87,-99.99,,,0.00,Acu-Link.com,2013-04-02 03:00:00,
2013-04-01 22:16:00,71.1,67.6,29.84,South,180,3.8,-999.0,89,-99.99,,,0.00,Acu-Link.com,2013-04-02 03:16:00,
2013-04-01 22:31:00,71.1,68.0,29.84,ENE,67,3.8,-999.0,90,-99.99,,,0.00,Acu-Link.com,2013-04-02 03:31:00,
2013-04-01 22:46:00,70.7,68.3,29.84,SSE,157,4.7,-999.0,92,-99.99,,,0.00,Acu-Link.com,2013-04-02 03:46:00,
2013-04-01 23:01:00,70.5,68.4,29.85,ESE,112,3.1,-999.0,93,-99.99,,,0.00,Acu-Link.com,2013-04-02 04:01:00,
2013-04-01 23:17:00,70.0,68.5,29.85,South,180,2.7,-999.0,95,-99.99,,,0.00,Acu-Link.com,2013-04-02 04:17:00,
2013-04-01 23:32:00,70.2,69.3,29.85,ESE,112,4.7,-999.0,97,-99.99,,,0.00,Acu-Link.com,2013-04-02 04:32:00,
2013-04-01 23:47:00,70.3,69.4,29.84,ESE,112,7.8,-999.0,97,-99.99,,,0.00,Acu-Link.com,2013-04-02 04:47:00,